Time;durP1;ratioP1;P1;durP2;ratioP2;P2;SDS_P1;SDS_P2;PMS_P1;PMS_P2;Temp;Humidity;BMP_temperature;BMP_pressure;BME280_temperature;BME280_humidity;BME280_pressure;Samples;Min_cycle;Max_cycle;Signal;HPM_P1;HPM_P2
2021/03/30 00:00:44;;;;;;;4.57;2.10;;;11.90;65.00;;;;;;5095818;28;20039;-54
2021/03/30 00:03:10;;;;;;;8.57;2.08;;;11.80;65.00;;;;;;5095637;28;20126;-54
2021/03/30 00:05:36;;;;;;;5.82;2.60;;;11.90;65.10;;;;;;5096170;28;20671;-54
2021/03/30 00:08:02;;;;;;;5.97;2.47;;;11.80;65.10;;;;;;5095933;28;20415;-54
2021/03/30 00:10:41;;;;;;;5.00;1.98;;;11.80;65.20;;;;;;5095771;28;20024;-54
2021/03/30 00:13:07;;;;;;;5.00;2.38;;;11.80;65.90;;;;;;5095016;28;20078;-55
2021/03/30 00:15:33;;;;;;;6.05;2.05;;;11.80;65.20;;;;;;5096027;28;20027;-54
2021/03/30 00:17:59;;;;;;;9.30;2.22;;;11.80;65.30;;;;;;5095721;28;20059;-54
2021/03/30 00:20:25;;;;;;;6.55;2.25;;;11.80;65.30;;;;;;5095609;28;20056;-54
2021/03/30 00:22:51;;;;;;;3.50;2.42;;;11.80;65.30;;;;;;5095231;28;20365;-55
2021/03/30 00:25:16;;;;;;;4.82;2.65;;;11.80;65.40;;;;;;5095488;28;20458;-54
2021/03/30 00:27:42;;;;;;;3.65;1.80;;;11.70;65.40;;;;;;5095553;28;20450;-54
2021/03/30 00:30:10;;;;;;;4.13;2.08;;;11.70;65.50;;;;;;5095617;28;20351;-55
2021/03/30 00:32:36;;;;;;;7.28;2.13;;;11.70;65.50;;;;;;5095248;28;20427;-54
2021/03/30 00:35:02;;;;;;;6.68;2.42;;;11.70;65.60;;;;;;5095474;28;20044;-54
2021/03/30 00:37:28;;;;;;;7.80;2.22;;;11.70;65.60;;;;;;5095089;28;20073;-54
2021/03/30 00:39:53;;;;;;;6.40;2.13;;;11.70;65.70;;;;;;5095282;28;20711;-54
2021/03/30 00:42:21;;;;;;;3.53;2.20;;;11.70;65.70;;;;;;5094785;28;20036;-54
2021/03/30 00:44:47;;;;;;;3.92;2.00;;;11.70;65.80;;;;;;5095208;28;20028;-54
2021/03/30 00:47:15;;;;;;;3.95;2.33;;;11.70;65.70;;;;;;5095053;28;20032;-54
2021/03/30 00:49:42;;;;;;;4.75;2.20;;;11.70;65.80;;;;;;5095216;28;20016;-54
2021/03/30 00:52:07;;;;;;;5.05;2.08;;;11.70;65.80;;;;;;5094230;28;20041;-54
2021/03/30 00:54:33;;;;;;;5.97;2.55;;;11.60;65.80;;;;;;5095253;28;20017;-54
2021/03/30 00:56:59;;;;;;;12.35;2.60;;;11.60;65.90;;;;;;5095110;28;20024;-54
2021/03/30 00:59:25;;;;;;;5.75;2.15;;;11.60;65.90;;;;;;5094877;28;20028;-54
2021/03/30 01:01:51;;;;;;;4.90;2.03;;;11.60;65.90;;;;;;5094424;28;20032;-54
2021/03/30 01:04:17;;;;;;;7.95;2.08;;;11.60;66.00;;;;;;5094874;28;20024;-54
2021/03/30 01:06:43;;;;;;;4.40;2.10;;;11.60;66.10;;;;;;5094364;28;20466;-54
2021/03/30 01:09:38;;;;;;;17.25;3.00;;;11.60;66.10;;;;;;5095043;28;20034;-54
2021/03/30 01:12:22;;;;;;;10.60;2.55;;;11.60;66.10;;;;;;5094458;28;20023;-54
2021/03/30 01:15:15;;;;;;;3.78;2.03;;;11.60;66.10;;;;;;5095132;28;20027;-54
2021/03/30 01:17:51;;;;;;;4.25;2.28;;;11.60;66.10;;;;;;5094595;28;20027;-54
2021/03/30 01:20:47;;;;;;;7.55;2.60;;;11.60;66.30;;;;;;5094649;28;20024;-54
2021/03/30 01:23:45;;;;;;;4.65;2.45;;;11.60;66.20;;;;;;5094102;28;20032;-54
2021/03/30 01:26:25;;;;;;;4.40;2.47;;;11.60;66.30;;;;;;5011064;28;20040;-54
2021/03/30 01:29:17;;;;;;;3.35;2.20;;;11.60;66.30;;;;;;5012018;28;20457;-54
2021/03/30 01:31:47;;;;;;;3.50;2.35;;;11.50;66.20;;;;;;5011478;28;20034;-54
2021/03/30 01:34:14;;;;;;;3.80;2.20;;;11.50;66.30;;;;;;5012057;28;20485;-54
2021/03/30 01:36:43;;;;;;;2.67;2.22;;;11.50;66.30;;;;;;5011831;28;20041;-54
2021/03/30 01:39:10;;;;;;;5.95;1.90;;;11.50;66.40;;;;;;5011975;28;20033;-54
2021/03/30 01:41:39;;;;;;;8.48;2.40;;;11.40;66.30;;;;;;5009853;28;20061;-54
2021/03/30 01:44:07;;;;;;;3.08;2.20;;;11.50;66.40;;;;;;5010120;28;20231;-54
2021/03/30 01:46:33;;;;;;;3.50;2.00;;;11.50;66.40;;;;;;5011709;28;20038;-54
2021/03/30 01:49:01;;;;;;;8.30;2.95;;;11.40;66.40;;;;;;5011731;28;20038;-54
2021/03/30 01:51:27;;;;;;;5.90;2.17;;;11.50;66.50;;;;;;5010950;28;20217;-54
2021/03/30 01:53:55;;;;;;;5.97;2.30;;;11.50;66.50;;;;;;5011726;28;20037;-54
2021/03/30 01:56:22;;;;;;;3.67;2.22;;;11.40;66.50;;;;;;5011621;28;20038;-54
2021/03/30 01:58:50;;;;;;;5.10;2.15;;;11.40;66.50;;;;;;5011286;28;20338;-54
2021/03/30 02:01:16;;;;;;;7.78;2.30;;;11.40;66.50;;;;;;5035639;28;20079;-54
2021/03/30 02:03:44;;;;;;;5.95;2.25;;;11.40;66.60;;;;;;5093669;28;20119;-54
2021/03/30 02:06:10;;;;;;;3.90;2.08;;;11.40;66.60;;;;;;5093741;28;20043;-54
2021/03/30 02:08:37;;;;;;;3.20;2.15;;;11.40;66.60;;;;;;5094065;28;20028;-54
2021/03/30 02:11:03;;;;;;;4.50;2.45;;;11.40;66.60;;;;;;5093756;28;20151;-54
2021/03/30 02:16:12;;;;;;;4.38;2.10;;;11.40;66.70;;;;;;5093673;28;20047;-54
2021/03/30 02:19:05;;;;;;;2.40;1.88;;;11.40;66.70;;;;;;5093561;28;20099;-54
2021/03/30 02:21:34;;;;;;;5.80;2.58;;;11.40;66.70;;;;;;5093261;28;20032;-54
2021/03/30 02:24:08;;;;;;;4.45;1.85;;;11.30;66.70;;;;;;5091662;28;20032;-55
2021/03/30 02:26:34;;;;;;;6.75;1.80;;;11.30;66.70;;;;;;5093433;28;20028;-54
2021/03/30 02:29:03;;;;;;;3.83;2.03;;;11.40;66.80;;;;;;5093999;28;20108;-54
2021/03/30 02:31:31;;;;;;;4.07;1.92;;;11.30;67.50;;;;;;5092851;28;20028;-54
2021/03/30 02:34:01;;;;;;;6.75;2.28;;;11.30;66.70;;;;;;5093209;28;20028;-54
2021/03/30 02:36:28;;;;;;;5.97;2.05;;;11.30;66.70;;;;;;5093039;28;20059;-54
2021/03/30 02:38:59;;;;;;;2.60;1.98;;;11.30;66.70;;;;;;5093312;28;20028;-54
2021/03/30 02:41:28;;;;;;;4.00;2.20;;;11.30;66.70;;;;;;5093129;28;20101;-54
2021/03/30 02:43:56;;;;;;;5.72;2.10;;;11.30;66.70;;;;;;5093163;28;20032;-54
2021/03/30 02:46:24;;;;;;;3.05;1.95;;;11.30;66.70;;;;;;5084964;28;20464;-54
2021/03/30 02:48:50;;;;;;;4.00;2.03;;;11.30;67.50;;;;;;5072961;28;20040;-54
2021/03/30 02:51:16;;;;;;;8.73;2.42;;;11.30;66.70;;;;;;5073655;28;20238;-54
2021/03/30 02:53:43;;;;;;;4.60;2.20;;;11.30;66.70;;;;;;5092885;28;20710;-54
2021/03/30 02:56:09;;;;;;;10.10;2.38;;;11.30;66.70;;;;;;5093183;28;20060;-54
2021/03/30 02:58:36;;;;;;;5.80;2.80;;;11.30;66.70;;;;;;5084545;28;20111;-54
2021/03/30 03:01:04;;;;;;;2.90;1.88;;;11.30;66.70;;;;;;5085708;28;20040;-54
2021/03/30 03:03:32;;;;;;;3.97;2.03;;;11.30;66.70;;;;;;5105786;28;20016;-54
2021/03/30 03:06:01;;;;;;;4.25;2.50;;;11.20;66.70;;;;;;5092625;28;20467;-54
2021/03/30 03:08:28;;;;;;;4.57;2.40;;;11.20;66.80;;;;;;5072672;28;20180;-55
2021/03/30 03:10:54;;;;;;;4.72;2.05;;;11.20;66.80;;;;;;5072973;28;20029;-54
2021/03/30 03:13:20;;;;;;;6.68;2.17;;;11.20;66.70;;;;;;5072597;28;20031;-54
2021/03/30 03:15:46;;;;;;;3.10;1.63;;;11.20;66.80;;;;;;5072723;28;20111;-55
2021/03/30 03:18:14;;;;;;;5.00;1.90;;;11.20;66.80;;;;;;5073159;28;20040;-54
2021/03/30 03:20:44;;;;;;;4.05;1.98;;;11.20;66.90;;;;;;5072353;28;20090;-54
2021/03/30 03:23:10;;;;;;;2.30;1.70;;;11.20;66.90;;;;;;5072327;28;20028;-54
2021/03/30 03:25:37;;;;;;;2.78;1.70;;;11.20;66.90;;;;;;5072603;28;20271;-55
2021/03/30 03:28:03;;;;;;;3.40;2.25;;;11.20;66.90;;;;;;5072593;28;20028;-54
2021/03/30 03:30:29;;;;;;;2.58;1.98;;;11.20;66.90;;;;;;5073022;28;20031;-54
2021/03/30 03:33:04;;;;;;;5.97;2.10;;;11.20;66.90;;;;;;5071968;28;20043;-54
2021/03/30 03:35:30;;;;;;;3.70;2.28;;;11.20;67.00;;;;;;5072859;28;20024;-54
2021/03/30 03:37:56;;;;;;;3.05;2.00;;;11.10;66.90;;;;;;5072468;28;20448;-55
2021/03/30 03:40:21;;;;;;;4.93;1.85;;;11.20;67.10;;;;;;5072315;28;20154;-55
2021/03/30 03:42:47;;;;;;;10.27;1.83;;;11.10;67.10;;;;;;5072091;28;20040;-54
2021/03/30 03:45:13;;;;;;;7.20;2.20;;;11.10;67.00;;;;;;5072535;28;20025;-54
2021/03/30 03:47:39;;;;;;;6.60;2.58;;;11.10;67.10;;;;;;5072145;28;20386;-54
2021/03/30 03:50:05;;;;;;;10.50;2.65;;;11.10;67.10;;;;;;5075759;28;20021;-54
2021/03/30 03:52:40;;;;;;;3.25;1.85;;;11.10;67.10;;;;;;5086821;28;20036;-54
2021/03/30 03:55:06;;;;;;;3.03;1.83;;;11.10;67.10;;;;;;5095875;28;20028;-54
2021/03/30 03:57:51;;;;;;;8.13;2.45;;;11.10;67.20;;;;;;5096235;28;20028;-54
2021/03/30 04:00:20;;;;;;;5.60;2.70;;;11.10;67.10;;;;;;5095273;28;20396;-55
2021/03/30 04:02:50;;;;;;;5.22;2.50;;;11.10;67.10;;;;;;5095561;28;20039;-54
2021/03/30 04:05:20;;;;;;;10.45;2.45;;;11.10;67.20;;;;;;5096253;28;20047;-54
2021/03/30 04:08:07;;;;;;;3.58;1.85;;;11.10;67.20;;;;;;5096162;28;20032;-54
2021/03/30 04:10:35;;;;;;;3.42;2.20;;;11.10;67.30;;;;;;5095835;28;20020;-54
2021/03/30 04:13:03;;;;;;;7.00;2.13;;;11.00;67.20;;;;;;5095786;28;20028;-54
2021/03/30 04:15:29;;;;;;;5.10;2.33;;;11.00;67.30;;;;;;5096271;28;20035;-54
2021/03/30 04:17:55;;;;;;;6.20;2.40;;;11.00;67.30;;;;;;5095757;28;20107;-54
2021/03/30 04:20:21;;;;;;;8.50;2.60;;;11.00;67.10;;;;;;5095943;28;20024;-54
2021/03/30 04:22:59;;;;;;;6.93;2.33;;;11.00;68.00;;;;;;5095792;28;20032;-54
2021/03/30 04:25:26;;;;;;;7.45;1.77;;;11.00;67.30;;;;;;5095720;28;20409;-54
2021/03/30 04:27:52;;;;;;;3.03;1.80;;;11.00;67.30;;;;;;5095624;28;20063;-54
2021/03/30 04:30:18;;;;;;;4.45;1.67;;;11.00;67.30;;;;;;5095640;28;20048;-54
2021/03/30 04:32:44;;;;;;;6.10;2.40;;;11.00;67.40;;;;;;5095176;28;20484;-54
2021/03/30 04:35:11;;;;;;;3.88;1.83;;;11.00;67.40;;;;;;5095496;28;20059;-54
2021/03/30 04:37:37;;;;;;;7.97;2.35;;;11.00;67.40;;;;;;5095037;28;20020;-54
2021/03/30 04:40:05;;;;;;;12.48;2.50;;;10.90;67.40;;;;;;5095418;28;20446;-54
2021/03/30 04:42:31;;;;;;;4.65;1.92;;;10.90;67.40;;;;;;5095060;28;20068;-55
2021/03/30 04:44:56;;;;;;;3.92;2.10;;;10.90;67.40;;;;;;5095227;28;20097;-54
2021/03/30 04:47:23;;;;;;;3.90;2.13;;;10.90;67.40;;;;;;5095294;28;20024;-54
2021/03/30 04:49:50;;;;;;;13.45;2.65;;;10.90;67.40;;;;;;5095193;28;20056;-54
2021/03/30 04:52:15;;;;;;;10.65;2.33;;;10.90;67.40;;;;;;5094542;28;20047;-54
2021/03/30 04:54:41;;;;;;;4.88;1.77;;;10.90;67.40;;;;;;5094816;28;20025;-54
2021/03/30 04:57:07;;;;;;;5.28;2.25;;;10.90;67.40;;;;;;5094863;28;20038;-54
2021/03/30 04:59:33;;;;;;;11.13;2.20;;;10.90;67.40;;;;;;5094986;28;20111;-54
2021/03/30 05:01:58;;;;;;;4.68;2.65;;;10.90;67.40;;;;;;5094508;28;20122;-54
2021/03/30 05:04:24;;;;;;;7.55;2.78;;;10.90;67.40;;;;;;5094846;28;20020;-54
2021/03/30 05:06:49;;;;;;;4.38;2.13;;;10.90;67.50;;;;;;5094454;28;20362;-55
2021/03/30 05:09:15;;;;;;;4.57;2.30;;;10.90;67.50;;;;;;5094726;28;20027;-54
2021/03/30 05:11:40;;;;;;;7.93;1.85;;;10.90;67.60;;;;;;5094803;28;20036;-54
2021/03/30 05:14:06;;;;;;;6.82;2.40;;;10.80;67.50;;;;;;5094591;28;20024;-54
2021/03/30 05:16:32;;;;;;;5.03;1.90;;;10.80;67.50;;;;;;5094588;28;20024;-55
2021/03/30 05:18:57;;;;;;;7.32;2.60;;;10.80;67.50;;;;;;5094918;28;20034;-54
2021/03/30 05:21:23;;;;;;;5.15;2.38;;;10.80;67.60;;;;;;5094038;28;20055;-55
2021/03/30 05:23:49;;;;;;;5.72;2.25;;;10.80;67.60;;;;;;5094507;28;20024;-54
2021/03/30 05:26:14;;;;;;;4.53;1.98;;;10.80;67.70;;;;;;5094562;28;20453;-54
2021/03/30 05:28:40;;;;;;;5.28;2.67;;;10.80;67.60;;;;;;5094507;28;20074;-54
2021/03/30 05:31:06;;;;;;;6.63;2.45;;;10.80;67.70;;;;;;5094471;28;20021;-54
2021/03/30 05:33:31;;;;;;;4.00;2.20;;;10.80;67.70;;;;;;5092793;28;20367;-54
2021/03/30 05:35:57;;;;;;;4.40;2.53;;;10.80;67.70;;;;;;5090452;28;20020;-54
2021/03/30 05:38:23;;;;;;;6.25;3.15;;;10.80;67.70;;;;;;5096701;28;20016;-54
2021/03/30 05:40:49;;;;;;;9.80;2.67;;;10.80;67.70;;;;;;5114821;28;20028;-54
2021/03/30 05:43:15;;;;;;;7.38;2.38;;;10.80;67.70;;;;;;5114087;28;20457;-54
2021/03/30 05:45:42;;;;;;;6.85;2.22;;;10.80;67.80;;;;;;5114330;28;20020;-54
2021/03/30 05:48:11;;;;;;;10.30;2.90;;;10.80;67.80;;;;;;5114549;28;20047;-54
2021/03/30 05:50:37;;;;;;;13.13;2.80;;;10.80;67.90;;;;;;5101452;28;20439;-55
2021/03/30 05:53:11;;;;;;;4.72;2.08;;;10.80;67.90;;;;;;5094687;28;20028;-54
2021/03/30 05:55:43;;;;;;;3.22;2.25;;;10.80;68.00;;;;;;5093876;28;20028;-54
2021/03/30 05:58:09;;;;;;;6.13;2.70;;;10.80;68.10;;;;;;5093854;28;20034;-54
2021/03/30 06:00:35;;;;;;;7.57;3.13;;;10.80;68.80;;;;;;5093655;28;20020;-54
2021/03/30 06:03:04;;;;;;;4.32;2.38;;;10.80;68.30;;;;;;5093226;28;20020;-54
2021/03/30 06:05:30;;;;;;;4.43;2.25;;;10.80;68.30;;;;;;5097279;28;20442;-54
2021/03/30 06:08:01;;;;;;;5.38;2.05;;;10.80;68.40;;;;;;5097891;28;20062;-54
2021/03/30 06:10:28;;;;;;;5.07;2.22;;;10.80;68.50;;;;;;5093059;28;20051;-54
2021/03/30 06:12:56;;;;;;;5.72;2.38;;;10.90;69.70;;;;;;5088958;28;20020;-54
2021/03/30 06:15:29;;;;;;;5.20;2.30;;;11.00;69.00;;;;;;5093321;28;20028;-54
2021/03/30 06:17:56;;;;;;;5.32;2.28;;;11.10;68.40;;;;;;5092690;28;20023;-54
2021/03/30 06:20:34;;;;;;;5.93;2.33;;;11.20;67.90;;;;;;5092797;28;20435;-54
2021/03/30 06:23:02;;;;;;;9.27;2.58;;;11.20;67.80;;;;;;5090429;28;20036;-54
2021/03/30 06:25:49;;;;;;;4.38;2.67;;;11.30;67.60;;;;;;5092820;28;20036;-54
2021/03/30 06:28:25;;;;;;;7.38;3.45;;;11.30;67.40;;;;;;5093189;28;20032;-54
2021/03/30 06:31:10;;;;;;;4.68;2.80;;;11.40;67.10;;;;;;5093333;28;20028;-55
2021/03/30 06:33:52;;;;;;;9.63;2.63;;;11.40;66.80;;;;;;5093061;28;20557;-55
2021/03/30 06:36:31;;;;;;;14.57;3.17;;;11.50;66.30;;;;;;5092958;28;20020;-54
2021/03/30 06:39:02;;;;;;;10.73;3.22;;;11.60;66.10;;;;;;5093307;28;20459;-54
2021/03/30 06:41:53;;;;;;;3.97;2.22;;;11.60;65.90;;;;;;5092663;28;20044;-55
2021/03/30 06:44:27;;;;;;;3.47;2.22;;;11.70;65.70;;;;;;5092929;28;20036;-54
2021/03/30 06:47:12;;;;;;;4.90;2.33;;;11.70;65.50;;;;;;5093036;28;20063;-55
2021/03/30 06:49:54;;;;;;;11.98;3.28;;;11.80;65.50;;;;;;5091895;28;20039;-54
2021/03/30 06:52:35;;;;;;;8.05;2.45;;;11.90;65.40;;;;;;5087563;28;20040;-54
2021/03/30 06:55:02;;;;;;;10.43;2.50;;;11.90;65.40;;;;;;5091115;28;20020;-55
2021/03/30 06:57:31;;;;;;;7.00;2.83;;;12.00;65.50;;;;;;5092040;28;20028;-55
2021/03/30 06:59:57;;;;;;;8.95;2.80;;;12.00;65.50;;;;;;5090705;28;20327;-54
2021/03/30 07:02:23;;;;;;;4.65;2.35;;;12.10;65.50;;;;;;5091968;28;20032;-54
2021/03/30 07:04:56;;;;;;;8.85;3.22;;;12.20;65.50;;;;;;5091088;28;20021;-55
2021/03/30 07:07:23;;;;;;;21.15;4.05;;;12.20;66.20;;;;;;5092376;28;20034;-54
2021/03/30 07:09:51;;;;;;;9.80;3.35;;;12.30;65.50;;;;;;5091143;28;20027;-55
2021/03/30 07:12:21;;;;;;;9.98;2.50;;;12.30;65.50;;;;;;5089331;28;20469;-54
2021/03/30 07:14:47;;;;;;;8.50;3.40;;;12.40;65.50;;;;;;5092285;28;20048;-55
2021/03/30 07:17:21;;;;;;;8.27;3.25;;;12.50;65.40;;;;;;5091715;28;20043;-55
2021/03/30 07:19:48;;;;;;;5.28;2.80;;;12.50;65.30;;;;;;5090891;28;20032;-55
2021/03/30 07:22:17;;;;;;;5.95;3.00;;;12.60;65.20;;;;;;5090158;28;20107;-55
2021/03/30 07:24:53;;;;;;;14.88;3.90;;;12.70;65.20;;;;;;5093705;28;20028;-54
2021/03/30 07:27:23;;;;;;;11.15;3.38;;;12.70;65.00;;;;;;5096130;28;20081;-55
2021/03/30 07:29:50;;;;;;;12.68;4.18;;;12.80;65.00;;;;;;5092438;28;20028;-55
2021/03/30 07:32:29;;;;;;;7.43;2.95;;;12.90;64.90;;;;;;5093641;28;20122;-55
2021/03/30 07:35:03;;;;;;;13.90;3.33;;;12.90;64.80;;;;;;5096100;28;20112;-55
2021/03/30 07:37:54;;;;;;;14.50;3.65;;;13.00;64.70;;;;;;5096516;28;20104;-55
2021/03/30 07:40:21;;;;;;;23.63;5.38;;;13.10;64.60;;;;;;5081221;28;20350;-55
2021/03/30 07:42:48;;;;;;;18.10;5.22;;;13.10;64.50;;;;;;5091997;28;20032;-55
2021/03/30 07:45:19;;;;;;;15.35;5.63;;;13.20;64.30;;;;;;5095119;28;20028;-55
2021/03/30 07:47:45;;;;;;;15.48;3.35;;;13.30;64.10;;;;;;5096330;28;20032;-55
2021/03/30 07:50:14;;;;;;;10.18;4.05;;;13.30;63.90;;;;;;5086970;28;20052;-55
2021/03/30 07:52:44;;;;;;;15.75;4.68;;;13.40;63.70;;;;;;5094814;28;20040;-55
2021/03/30 07:55:19;;;;;;;;;;;13.40;64.20;;;;;;5096153;28;20024;-54
2021/03/30 07:58:04;;;;;;;10.18;4.00;;;13.50;63.20;;;;;;5095413;28;20388;-55
2021/03/30 08:00:33;;;;;;;16.75;4.63;;;13.60;63.00;;;;;;5093067;28;20098;-54
2021/03/30 08:03:04;;;;;;;12.40;4.78;;;13.60;62.60;;;;;;5091707;28;20412;-55
2021/03/30 08:05:33;;;;;;;13.15;6.05;;;13.70;62.50;;;;;;5094811;28;20032;-55
2021/03/30 08:07:59;;;;;;;16.02;5.43;;;13.80;63.20;;;;;;5093605;28;20057;-55
2021/03/30 08:10:25;;;;;;;11.23;4.85;;;13.80;62.00;;;;;;5092359;28;20028;-55
2021/03/30 08:13:10;;;;;;;13.40;5.90;;;13.90;61.80;;;;;;5088116;28;20073;-54
2021/03/30 08:15:44;;;;;;;13.85;4.78;;;13.90;62.40;;;;;;5093571;28;20032;-55
2021/03/30 08:18:11;;;;;;;10.00;4.60;;;14.00;61.50;;;;;;5088046;28;20115;-55
2021/03/30 08:20:55;;;;;;;18.70;6.10;;;14.00;61.20;;;;;;5079120;28;20043;-55
2021/03/30 08:23:21;;;;;;;14.48;6.85;;;14.10;61.00;;;;;;5086603;28;20024;-55
2021/03/30 08:25:50;;;;;;;27.98;7.72;;;14.10;60.90;;;;;;5084053;28;20451;-54
2021/03/30 08:28:54;;;;;;;14.07;6.88;;;14.20;60.70;;;;;;5082271;28;20440;-55
2021/03/30 08:31:26;;;;;;;15.48;5.13;;;14.20;60.40;;;;;;5083649;28;20092;-55
2021/03/30 08:33:55;;;;;;;16.60;6.88;;;14.30;60.40;;;;;;5079744;28;20443;-52
2021/03/30 08:36:30;;;;;;;10.00;4.78;;;14.30;60.00;;;;;;5085515;28;20034;-52
2021/03/30 08:38:59;;;;;;;16.38;5.68;;;14.40;60.30;;;;;;5083593;28;20024;-51
2021/03/30 08:41:43;;;;;;;13.70;6.20;;;14.40;59.80;;;;;;5091252;28;20062;-52
2021/03/30 08:44:18;;;;;;;21.02;8.70;;;14.50;59.70;;;;;;5089444;28;20059;-51
2021/03/30 08:46:47;;;;;;;14.05;7.10;;;14.50;59.10;;;;;;5090622;28;20055;-52
2021/03/30 08:49:32;;;;;;;25.02;10.32;;;14.50;58.70;;;;;;5091652;28;20024;-51
2021/03/30 08:52:03;;;;;;;17.52;6.90;;;14.60;58.00;;;;;;5089072;28;20064;-52
2021/03/30 08:54:35;;;;;;;21.35;9.40;;;14.70;57.80;;;;;;5093945;28;20095;-52
2021/03/30 08:57:07;;;;;;;32.75;9.25;;;14.70;57.20;;;;;;5094519;28;20048;-51
2021/03/30 08:59:34;;;;;;;24.08;5.88;;;14.70;57.10;;;;;;5094046;28;20068;-51
2021/03/30 09:02:03;;;;;;;15.70;6.68;;;14.70;56.70;;;;;;5093940;28;20071;-52
2021/03/30 09:04:33;;;;;;;16.98;9.32;;;14.80;56.50;;;;;;5091367;28;20110;-52
2021/03/30 09:06:59;;;;;;;16.63;7.38;;;14.80;56.50;;;;;;5088537;28;20035;-52
2021/03/30 09:09:33;;;;;;;30.40;13.82;;;14.90;56.20;;;;;;5088490;28;20032;-51
2021/03/30 09:11:58;;;;;;;20.48;9.05;;;14.80;55.80;;;;;;5090703;28;20028;-51
2021/03/30 09:14:24;;;;;;;14.60;4.82;;;14.90;55.50;;;;;;5084993;28;20038;-51
2021/03/30 09:16:51;;;;;;;14.63;6.85;;;15.00;55.20;;;;;;5083245;28;20020;-51
2021/03/30 09:19:33;;;;;;;24.05;8.25;;;15.00;54.80;;;;;;5092738;28;20032;-50
2021/03/30 09:22:05;;;;;;;20.40;8.50;;;15.10;54.60;;;;;;5087113;28;20568;-51
2021/03/30 09:27:06;;;;;;;17.42;8.45;;;15.20;53.90;;;;;;5091992;28;20450;-51
2021/03/30 09:29:36;;;;;;;19.38;9.20;;;15.30;54.10;;;;;;5091190;28;20027;-51
2021/03/30 09:32:07;;;;;;;11.05;5.80;;;15.30;53.80;;;;;;5090294;28;20438;-51
2021/03/30 09:34:33;;;;;;;29.35;12.63;;;15.30;53.60;;;;;;5089575;28;20043;-51
2021/03/30 09:37:00;;;;;;;23.10;6.50;;;15.30;52.70;;;;;;5088128;28;20107;-51
2021/03/30 09:39:27;;;;;;;27.05;10.35;;;15.40;52.30;;;;;;5093234;28;20058;-51
2021/03/30 09:41:55;;;;;;;13.82;7.05;;;15.40;52.10;;;;;;5088490;28;20118;-51
2021/03/30 09:44:22;;;;;;;19.85;7.47;;;15.50;52.20;;;;;;5093328;28;20039;-51
2021/03/30 09:46:51;;;;;;;17.27;8.45;;;15.50;51.90;;;;;;5086239;28;20055;-51
2021/03/30 09:49:24;;;;;;;14.25;5.60;;;15.50;51.40;;;;;;5093200;28;20020;-51
2021/03/30 09:51:51;;;;;;;21.10;7.97;;;15.60;50.90;;;;;;5089586;28;20024;-51
2021/03/30 09:54:22;;;;;;;23.08;7.55;;;15.60;51.30;;;;;;5089076;28;20035;-51
2021/03/30 09:56:54;;;;;;;22.60;8.98;;;15.60;51.40;;;;;;5092866;28;20078;-51
2021/03/30 09:59:20;;;;;;;17.90;8.05;;;15.60;51.30;;;;;;5092723;28;20070;-51
2021/03/30 10:01:46;;;;;;;13.68;6.15;;;15.60;51.10;;;;;;5091827;28;20043;-51
2021/03/30 10:04:12;;;;;;;14.50;5.45;;;15.70;50.90;;;;;;5084610;28;20127;-51
2021/03/30 10:06:38;;;;;;;10.02;4.13;;;15.70;51.30;;;;;;5092574;28;20112;-51
2021/03/30 10:09:07;;;;;;;15.48;6.80;;;15.70;50.40;;;;;;5092745;28;20409;-51
2021/03/30 10:11:34;;;;;;;15.82;7.22;;;15.70;50.40;;;;;;5092358;28;20020;-51
2021/03/30 10:14:25;;;;;;;14.07;6.45;;;15.70;50.20;;;;;;5093304;28;20069;-51
2021/03/30 10:16:53;;;;;;;20.80;7.95;;;15.60;50.00;;;;;;5088431;28;20035;-51
2021/03/30 10:19:21;;;;;;;13.27;6.25;;;15.60;50.20;;;;;;5091588;28;20128;-51
2021/03/30 10:21:52;;;;;;;11.63;5.72;;;15.60;50.20;;;;;;5088786;28;20042;-51
2021/03/30 10:24:18;;;;;;;15.20;6.97;;;15.60;50.70;;;;;;5084861;28;20107;-51
2021/03/30 10:27:19;;;;;;;13.18;6.07;;;15.60;50.30;;;;;;5092108;28;20473;-52
2021/03/30 10:29:45;;;;;;;14.75;4.22;;;15.60;50.80;;;;;;5025921;28;20468;-51
2021/03/30 10:32:16;;;;;;;14.88;6.43;;;15.60;50.60;;;;;;5021492;28;20041;-51
2021/03/30 10:34:43;;;;;;;4.07;2.75;;;15.70;50.30;;;;;;5021047;28;20041;-51
2021/03/30 10:37:12;;;;;;;9.82;3.72;;;15.70;50.50;;;;;;5017070;28;20083;-51
2021/03/30 10:39:40;;;;;;;9.52;4.55;;;15.70;50.00;;;;;;5027813;28;20350;-51
2021/03/30 10:42:12;;;;;;;14.52;5.15;;;15.70;49.80;;;;;;5012658;28;20468;-51
2021/03/30 10:44:43;;;;;;;8.98;4.60;;;15.60;50.00;;;;;;5023907;28;20556;-51
2021/03/30 10:47:17;;;;;;;11.52;5.65;;;15.60;49.60;;;;;;5015389;28;20033;-51
2021/03/30 10:49:44;;;;;;;9.52;4.88;;;15.60;50.20;;;;;;5019481;28;20400;-51
2021/03/30 10:52:16;;;;;;;16.67;4.82;;;15.60;50.50;;;;;;5023818;28;20061;-51
2021/03/30 10:54:42;;;;;;;9.68;3.85;;;15.60;50.00;;;;;;5020043;28;20030;-51
2021/03/30 10:57:12;;;;;;;11.02;4.45;;;15.60;49.90;;;;;;5015923;28;20056;-51
2021/03/30 10:59:37;;;;;;;7.50;4.35;;;15.60;50.00;;;;;;5019036;28;20113;-51
2021/03/30 11:02:03;;;;;;;12.10;5.60;;;15.60;50.00;;;;;;5021628;28;20049;-51
2021/03/30 11:04:29;;;;;;;8.60;4.50;;;15.60;50.10;;;;;;5077650;28;20474;-51
2021/03/30 11:06:54;;;;;;;12.50;3.70;;;15.60;50.50;;;;;;5095818;28;20404;-51
2021/03/30 11:09:20;;;;;;;5.45;3.60;;;15.60;49.50;;;;;;5096446;28;20039;-51
2021/03/30 11:11:46;;;;;;;9.25;4.55;;;15.60;49.80;;;;;;5096468;28;20158;-51
2021/03/30 11:14:11;;;;;;;8.18;4.20;;;15.70;50.00;;;;;;5096227;28;20039;-51
2021/03/30 11:16:37;;;;;;;13.35;6.03;;;15.70;50.00;;;;;;5094192;28;20047;-51
2021/03/30 11:19:04;;;;;;;8.68;4.55;;;15.70;49.80;;;;;;5096870;28;20346;-51
2021/03/30 11:21:30;;;;;;;7.65;4.72;;;15.70;49.80;;;;;;5092758;28;20119;-51
2021/03/30 11:24:01;;;;;;;13.43;5.47;;;15.70;50.20;;;;;;5093254;28;20415;-51
2021/03/30 11:26:27;;;;;;;9.40;4.82;;;15.70;49.90;;;;;;5091724;28;20066;-52
2021/03/30 11:28:54;;;;;;;17.13;6.05;;;15.70;50.70;;;;;;5095815;28;20062;-51
2021/03/30 11:31:50;;;;;;;9.93;5.65;;;15.70;50.00;;;;;;5095327;28;20039;-51
2021/03/30 11:34:23;;;;;;;8.25;4.70;;;15.70;50.30;;;;;;5096069;28;20080;-52
2021/03/30 11:36:53;;;;;;;12.90;5.45;;;15.60;50.60;;;;;;5095054;28;20028;-51
2021/03/30 11:39:19;;;;;;;11.20;4.97;;;15.60;50.40;;;;;;5090561;28;20036;-51
2021/03/30 11:41:44;;;;;;;11.13;5.88;;;15.60;50.60;;;;;;5095912;28;20362;-51
2021/03/30 11:44:10;;;;;;;10.57;4.25;;;15.60;51.30;;;;;;5096054;28;20063;-51
2021/03/30 11:46:36;;;;;;;2.90;1.63;;;15.60;50.80;;;;;;5096214;28;20032;-51
2021/03/30 11:49:01;;;;;;;9.18;4.55;;;15.70;49.80;;;;;;5098788;28;20060;-51
2021/03/30 11:51:27;;;;;;;14.00;5.90;;;15.70;50.30;;;;;;5092407;28;20024;-52
2021/03/30 11:53:53;;;;;;;14.20;5.95;;;15.80;50.60;;;;;;5091418;28;20395;-51
2021/03/30 11:56:18;;;;;;;17.92;5.28;;;15.70;50.70;;;;;;5091989;28;20032;-51
2021/03/30 11:58:44;;;;;;;11.90;4.90;;;15.70;50.40;;;;;;5090522;28;20031;-51
2021/03/30 12:01:10;;;;;;;9.32;4.20;;;15.70;50.90;;;;;;5094054;28;20031;-51
2021/03/30 12:03:37;;;;;;;11.48;5.15;;;15.70;51.00;;;;;;5089661;28;20044;-51
2021/03/30 12:06:06;;;;;;;9.73;4.70;;;15.70;50.80;;;;;;5091501;28;20021;-51
2021/03/30 12:08:35;;;;;;;10.38;5.25;;;15.60;50.90;;;;;;5090658;28;20020;-51
2021/03/30 12:11:00;;;;;;;11.48;4.60;;;15.60;51.30;;;;;;5095475;28;20103;-51
2021/03/30 12:13:27;;;;;;;9.75;4.05;;;15.70;51.30;;;;;;5092135;28;20054;-51
2021/03/30 12:15:52;;;;;;;6.97;4.55;;;15.70;50.20;;;;;;5084097;28;20027;-51
2021/03/30 12:18:18;;;;;;;13.35;3.92;;;15.80;50.70;;;;;;5094503;28;20024;-51
2021/03/30 12:20:44;;;;;;;7.53;3.92;;;15.80;50.80;;;;;;5098143;28;20043;-51
2021/03/30 12:23:10;;;;;;;11.27;5.53;;;15.80;50.90;;;;;;5092723;28;20111;-51
2021/03/30 12:25:36;;;;;;;10.93;4.72;;;15.80;49.40;;;;;;5093762;28;20097;-51
2021/03/30 12:28:01;;;;;;;11.27;4.60;;;15.70;50.70;;;;;;5089833;28;20623;-51
2021/03/30 12:30:27;;;;;;;12.70;5.20;;;15.70;50.90;;;;;;5090970;28;20020;-51
2021/03/30 12:32:53;;;;;;;10.52;5.45;;;15.70;50.70;;;;;;5089157;28;20032;-51
2021/03/30 12:35:18;;;;;;;8.20;3.47;;;15.80;50.50;;;;;;5093882;28;20073;-51
2021/03/30 12:37:44;;;;;;;9.20;3.30;;;15.80;49.80;;;;;;5091956;28;20028;-51
2021/03/30 12:40:10;;;;;;;6.20;3.25;;;15.80;48.90;;;;;;5094164;28;20028;-51
2021/03/30 12:42:35;;;;;;;10.93;4.43;;;15.90;49.00;;;;;;5094334;28;20119;-51
2021/03/30 12:45:01;;;;;;;12.93;5.50;;;16.00;49.80;;;;;;5094992;28;20332;-51
2021/03/30 12:47:27;;;;;;;11.43;5.38;;;16.00;50.00;;;;;;5095444;28;20028;-51
2021/03/30 12:49:53;;;;;;;11.18;4.55;;;16.00;50.20;;;;;;5096923;28;20019;-51
2021/03/30 12:52:18;;;;;;;16.95;5.82;;;16.00;50.30;;;;;;5093931;28;20027;-51
2021/03/30 12:54:44;;;;;;;12.80;5.07;;;15.90;50.40;;;;;;5094672;28;20020;-52
2021/03/30 12:57:09;;;;;;;9.52;4.43;;;15.90;50.40;;;;;;5086106;28;20426;-51
2021/03/30 12:59:35;;;;;;;17.83;5.25;;;15.90;50.30;;;;;;5092877;28;20349;-51